sensor_id;sensor_type;location;lat;lon;timestamp;P1;durP1;ratioP1;P2;durP2;ratioP2
23282;SDS011;11810;51.178;3.878;2022-07-29T00:00:46;6.88;;;2.45;;
23282;SDS011;11810;51.178;3.878;2022-07-29T00:03:12;6.82;;;3.05;;
23282;SDS011;11810;51.178;3.878;2022-07-29T00:05:39;4.90;;;2.35;;
23282;SDS011;11810;51.178;3.878;2022-07-29T00:08:06;5.68;;;2.47;;
23282;SDS011;11810;51.178;3.878;2022-07-29T00:10:33;10.30;;;2.47;;
23282;SDS011;11810;51.178;3.878;2022-07-29T00:12:59;5.32;;;2.72;;
23282;SDS011;11810;51.178;3.878;2022-07-29T00:15:25;6.43;;;2.40;;
23282;SDS011;11810;51.178;3.878;2022-07-29T00:17:51;5.30;;;2.53;;
23282;SDS011;11810;51.178;3.878;2022-07-29T00:20:18;5.30;;;2.72;;
23282;SDS011;11810;51.178;3.878;2022-07-29T00:22:44;5.25;;;2.67;;
23282;SDS011;11810;51.178;3.878;2022-07-29T00:25:10;8.40;;;2.58;;
23282;SDS011;11810;51.178;3.878;2022-07-29T00:27:37;4.07;;;2.65;;
23282;SDS011;11810;51.178;3.878;2022-07-29T00:30:04;6.22;;;2.60;;
23282;SDS011;11810;51.178;3.878;2022-07-29T00:32:31;8.15;;;2.80;;
23282;SDS011;11810;51.178;3.878;2022-07-29T00:34:56;6.07;;;2.30;;
23282;SDS011;11810;51.178;3.878;2022-07-29T00:40:07;5.90;;;2.38;;
23282;SDS011;11810;51.178;3.878;2022-07-29T00:42:46;4.90;;;2.10;;
23282;SDS011;11810;51.178;3.878;2022-07-29T00:45:14;6.15;;;2.20;;
23282;SDS011;11810;51.178;3.878;2022-07-29T00:47:41;3.30;;;2.00;;
23282;SDS011;11810;51.178;3.878;2022-07-29T00:50:08;9.75;;;2.72;;
23282;SDS011;11810;51.178;3.878;2022-07-29T00:52:36;4.05;;;1.90;;
23282;SDS011;11810;51.178;3.878;2022-07-29T00:55:04;2.63;;;1.90;;
23282;SDS011;11810;51.178;3.878;2022-07-29T00:57:32;5.45;;;2.10;;
23282;SDS011;11810;51.178;3.878;2022-07-29T00:59:58;5.47;;;2.20;;
23282;SDS011;11810;51.178;3.878;2022-07-29T01:02:24;4.40;;;2.03;;
23282;SDS011;11810;51.178;3.878;2022-07-29T01:04:50;6.28;;;1.90;;
23282;SDS011;11810;51.178;3.878;2022-07-29T01:07:17;3.60;;;2.20;;
23282;SDS011;11810;51.178;3.878;2022-07-29T01:09:43;5.18;;;2.10;;
23282;SDS011;11810;51.178;3.878;2022-07-29T01:12:11;5.22;;;1.90;;
23282;SDS011;11810;51.178;3.878;2022-07-29T01:14:42;3.70;;;1.85;;
23282;SDS011;11810;51.178;3.878;2022-07-29T01:17:14;4.72;;;2.25;;
23282;SDS011;11810;51.178;3.878;2022-07-29T01:25:35;6.05;;;2.10;;
23282;SDS011;11810;51.178;3.878;2022-07-29T01:31:09;5.65;;;2.33;;
23282;SDS011;11810;51.178;3.878;2022-07-29T01:33:38;9.55;;;2.10;;
23282;SDS011;11810;51.178;3.878;2022-07-29T01:36:16;5.03;;;2.05;;
23282;SDS011;11810;51.178;3.878;2022-07-29T01:41:31;5.80;;;1.95;;
23282;SDS011;11810;51.178;3.878;2022-07-29T01:44:02;4.05;;;2.22;;
23282;SDS011;11810;51.178;3.878;2022-07-29T01:46:44;4.22;;;1.70;;
23282;SDS011;11810;51.178;3.878;2022-07-29T01:49:21;6.32;;;1.90;;
23282;SDS011;11810;51.178;3.878;2022-07-29T01:51:59;4.40;;;2.20;;
23282;SDS011;11810;51.178;3.878;2022-07-29T01:54:43;6.85;;;2.17;;
23282;SDS011;11810;51.178;3.878;2022-07-29T01:57:14;5.60;;;1.85;;
23282;SDS011;11810;51.178;3.878;2022-07-29T01:59:43;2.55;;;1.98;;
23282;SDS011;11810;51.178;3.878;2022-07-29T02:02:11;3.92;;;2.03;;
23282;SDS011;11810;51.178;3.878;2022-07-29T02:04:40;4.15;;;2.17;;
23282;SDS011;11810;51.178;3.878;2022-07-29T02:07:08;6.32;;;2.05;;
23282;SDS011;11810;51.178;3.878;2022-07-29T02:09:39;6.25;;;1.85;;
23282;SDS011;11810;51.178;3.878;2022-07-29T02:12:06;3.28;;;2.15;;
23282;SDS011;11810;51.178;3.878;2022-07-29T02:14:37;5.03;;;2.50;;
23282;SDS011;11810;51.178;3.878;2022-07-29T02:17:07;3.80;;;2.20;;
23282;SDS011;11810;51.178;3.878;2022-07-29T02:19:34;8.93;;;2.20;;
23282;SDS011;11810;51.178;3.878;2022-07-29T02:22:03;5.43;;;2.08;;
23282;SDS011;11810;51.178;3.878;2022-07-29T02:24:31;5.03;;;2.08;;
23282;SDS011;11810;51.178;3.878;2022-07-29T02:27:01;3.97;;;2.10;;
23282;SDS011;11810;51.178;3.878;2022-07-29T02:29:29;6.90;;;2.33;;
23282;SDS011;11810;51.178;3.878;2022-07-29T02:31:57;7.72;;;2.38;;
23282;SDS011;11810;51.178;3.878;2022-07-29T02:34:25;4.47;;;2.35;;
23282;SDS011;11810;51.178;3.878;2022-07-29T02:36:54;3.42;;;2.25;;
23282;SDS011;11810;51.178;3.878;2022-07-29T02:39:20;5.53;;;2.53;;
23282;SDS011;11810;51.178;3.878;2022-07-29T02:41:54;6.32;;;2.65;;
23282;SDS011;11810;51.178;3.878;2022-07-29T02:44:25;5.97;;;2.40;;
23282;SDS011;11810;51.178;3.878;2022-07-29T02:47:05;4.05;;;2.10;;
23282;SDS011;11810;51.178;3.878;2022-07-29T02:52:17;3.03;;;2.35;;
23282;SDS011;11810;51.178;3.878;2022-07-29T02:55:01;3.70;;;2.40;;
23282;SDS011;11810;51.178;3.878;2022-07-29T02:57:42;7.47;;;2.22;;
23282;SDS011;11810;51.178;3.878;2022-07-29T03:00:09;6.68;;;2.60;;
23282;SDS011;11810;51.178;3.878;2022-07-29T03:02:37;8.30;;;3.13;;
23282;SDS011;11810;51.178;3.878;2022-07-29T03:05:11;5.05;;;2.50;;
23282;SDS011;11810;51.178;3.878;2022-07-29T03:07:43;3.53;;;2.85;;
23282;SDS011;11810;51.178;3.878;2022-07-29T03:10:12;4.72;;;2.83;;
23282;SDS011;11810;51.178;3.878;2022-07-29T03:12:39;4.20;;;3.03;;
23282;SDS011;11810;51.178;3.878;2022-07-29T03:15:06;10.98;;;3.58;;
23282;SDS011;11810;51.178;3.878;2022-07-29T03:17:33;6.20;;;2.88;;
23282;SDS011;11810;51.178;3.878;2022-07-29T03:19:59;7.70;;;2.97;;
23282;SDS011;11810;51.178;3.878;2022-07-29T03:22:26;8.95;;;3.10;;
23282;SDS011;11810;51.178;3.878;2022-07-29T03:24:53;4.63;;;3.10;;
23282;SDS011;11810;51.178;3.878;2022-07-29T03:27:19;8.68;;;3.25;;
23282;SDS011;11810;51.178;3.878;2022-07-29T03:29:45;7.07;;;2.90;;
23282;SDS011;11810;51.178;3.878;2022-07-29T03:32:11;4.82;;;2.83;;
23282;SDS011;11810;51.178;3.878;2022-07-29T03:34:37;5.47;;;3.33;;
23282;SDS011;11810;51.178;3.878;2022-07-29T03:37:03;7.10;;;3.47;;
23282;SDS011;11810;51.178;3.878;2022-07-29T03:39:31;8.45;;;3.60;;
23282;SDS011;11810;51.178;3.878;2022-07-29T03:42:04;4.95;;;2.75;;
23282;SDS011;11810;51.178;3.878;2022-07-29T03:44:32;6.38;;;2.67;;
23282;SDS011;11810;51.178;3.878;2022-07-29T03:46:59;7.82;;;2.90;;
23282;SDS011;11810;51.178;3.878;2022-07-29T03:49:28;5.50;;;2.60;;
23282;SDS011;11810;51.178;3.878;2022-07-29T03:51:56;6.97;;;3.40;;
23282;SDS011;11810;51.178;3.878;2022-07-29T03:54:22;5.00;;;3.42;;
23282;SDS011;11810;51.178;3.878;2022-07-29T03:56:48;6.30;;;3.42;;
23282;SDS011;11810;51.178;3.878;2022-07-29T03:59:17;6.38;;;2.95;;
23282;SDS011;11810;51.178;3.878;2022-07-29T04:01:45;4.18;;;2.60;;
23282;SDS011;11810;51.178;3.878;2022-07-29T04:04:11;4.38;;;3.70;;
23282;SDS011;11810;51.178;3.878;2022-07-29T04:06:38;8.40;;;3.85;;
23282;SDS011;11810;51.178;3.878;2022-07-29T04:09:06;3.67;;;3.30;;
23282;SDS011;11810;51.178;3.878;2022-07-29T04:11:32;4.32;;;3.35;;
23282;SDS011;11810;51.178;3.878;2022-07-29T04:13:59;6.07;;;3.30;;
23282;SDS011;11810;51.178;3.878;2022-07-29T04:16:25;7.15;;;4.00;;
23282;SDS011;11810;51.178;3.878;2022-07-29T04:18:51;5.95;;;3.58;;
23282;SDS011;11810;51.178;3.878;2022-07-29T04:21:17;5.88;;;3.13;;
23282;SDS011;11810;51.178;3.878;2022-07-29T04:23:43;6.30;;;3.67;;
23282;SDS011;11810;51.178;3.878;2022-07-29T04:26:10;7.40;;;3.67;;
23282;SDS011;11810;51.178;3.878;2022-07-29T04:28:36;6.75;;;3.80;;
23282;SDS011;11810;51.178;3.878;2022-07-29T04:31:04;7.65;;;4.15;;
23282;SDS011;11810;51.178;3.878;2022-07-29T04:33:30;7.95;;;4.47;;
23282;SDS011;11810;51.178;3.878;2022-07-29T04:35:56;6.32;;;4.63;;
23282;SDS011;11810;51.178;3.878;2022-07-29T04:38:22;10.30;;;3.67;;
23282;SDS011;11810;51.178;3.878;2022-07-29T04:40:48;7.75;;;4.82;;
23282;SDS011;11810;51.178;3.878;2022-07-29T04:43:14;7.60;;;3.83;;
23282;SDS011;11810;51.178;3.878;2022-07-29T04:45:41;7.65;;;3.83;;
23282;SDS011;11810;51.178;3.878;2022-07-29T04:48:07;9.00;;;4.60;;
23282;SDS011;11810;51.178;3.878;2022-07-29T04:50:33;6.78;;;4.07;;
23282;SDS011;11810;51.178;3.878;2022-07-29T04:52:59;7.97;;;4.30;;
23282;SDS011;11810;51.178;3.878;2022-07-29T04:55:25;6.93;;;4.30;;
23282;SDS011;11810;51.178;3.878;2022-07-29T04:57:51;5.68;;;3.55;;
23282;SDS011;11810;51.178;3.878;2022-07-29T05:00:17;5.38;;;3.58;;
23282;SDS011;11810;51.178;3.878;2022-07-29T05:02:43;8.95;;;3.67;;
23282;SDS011;11810;51.178;3.878;2022-07-29T05:05:09;9.55;;;4.30;;
23282;SDS011;11810;51.178;3.878;2022-07-29T05:07:35;7.43;;;3.90;;
23282;SDS011;11810;51.178;3.878;2022-07-29T05:10:01;6.70;;;3.72;;
23282;SDS011;11810;51.178;3.878;2022-07-29T05:12:27;6.68;;;4.00;;
23282;SDS011;11810;51.178;3.878;2022-07-29T05:14:53;8.13;;;4.07;;
23282;SDS011;11810;51.178;3.878;2022-07-29T05:17:19;6.40;;;4.07;;
23282;SDS011;11810;51.178;3.878;2022-07-29T05:19:45;7.65;;;4.22;;
23282;SDS011;11810;51.178;3.878;2022-07-29T05:22:11;7.50;;;3.83;;
23282;SDS011;11810;51.178;3.878;2022-07-29T05:24:37;6.63;;;3.55;;
23282;SDS011;11810;51.178;3.878;2022-07-29T05:27:03;7.15;;;4.05;;
23282;SDS011;11810;51.178;3.878;2022-07-29T05:29:29;7.05;;;3.85;;
23282;SDS011;11810;51.178;3.878;2022-07-29T05:31:55;5.68;;;3.70;;
23282;SDS011;11810;51.178;3.878;2022-07-29T05:34:22;7.47;;;3.95;;
23282;SDS011;11810;51.178;3.878;2022-07-29T05:36:48;8.40;;;3.72;;
23282;SDS011;11810;51.178;3.878;2022-07-29T05:39:15;5.30;;;3.53;;
23282;SDS011;11810;51.178;3.878;2022-07-29T05:41:41;5.93;;;3.50;;
23282;SDS011;11810;51.178;3.878;2022-07-29T05:44:07;8.95;;;3.42;;
23282;SDS011;11810;51.178;3.878;2022-07-29T05:46:32;8.32;;;3.08;;
23282;SDS011;11810;51.178;3.878;2022-07-29T05:48:58;10.15;;;3.05;;
23282;SDS011;11810;51.178;3.878;2022-07-29T05:51:24;4.28;;;2.80;;
23282;SDS011;11810;51.178;3.878;2022-07-29T05:53:50;7.45;;;2.70;;
23282;SDS011;11810;51.178;3.878;2022-07-29T05:56:16;5.28;;;2.92;;
23282;SDS011;11810;51.178;3.878;2022-07-29T05:58:42;8.48;;;3.40;;
23282;SDS011;11810;51.178;3.878;2022-07-29T06:01:08;4.95;;;2.85;;
23282;SDS011;11810;51.178;3.878;2022-07-29T06:03:34;6.57;;;3.10;;
23282;SDS011;11810;51.178;3.878;2022-07-29T06:06:02;7.85;;;3.17;;
23282;SDS011;11810;51.178;3.878;2022-07-29T06:08:29;3.72;;;2.70;;
23282;SDS011;11810;51.178;3.878;2022-07-29T06:10:55;4.80;;;2.78;;
23282;SDS011;11810;51.178;3.878;2022-07-29T06:13:21;7.40;;;2.70;;
23282;SDS011;11810;51.178;3.878;2022-07-29T06:15:47;5.45;;;2.97;;
23282;SDS011;11810;51.178;3.878;2022-07-29T06:18:13;6.30;;;2.90;;
23282;SDS011;11810;51.178;3.878;2022-07-29T06:20:39;10.70;;;2.88;;
23282;SDS011;11810;51.178;3.878;2022-07-29T06:23:05;7.57;;;3.13;;
23282;SDS011;11810;51.178;3.878;2022-07-29T06:25:31;4.65;;;2.42;;
23282;SDS011;11810;51.178;3.878;2022-07-29T06:27:59;5.60;;;2.38;;
23282;SDS011;11810;51.178;3.878;2022-07-29T06:30:25;6.63;;;3.00;;
23282;SDS011;11810;51.178;3.878;2022-07-29T06:32:51;6.45;;;2.83;;
23282;SDS011;11810;51.178;3.878;2022-07-29T06:35:17;6.47;;;2.53;;
23282;SDS011;11810;51.178;3.878;2022-07-29T06:37:43;5.55;;;3.08;;
23282;SDS011;11810;51.178;3.878;2022-07-29T06:40:10;8.88;;;2.67;;
23282;SDS011;11810;51.178;3.878;2022-07-29T06:42:54;6.43;;;2.58;;
23282;SDS011;11810;51.178;3.878;2022-07-29T06:45:20;10.10;;;2.28;;
23282;SDS011;11810;51.178;3.878;2022-07-29T06:47:46;5.78;;;2.38;;
23282;SDS011;11810;51.178;3.878;2022-07-29T06:50:13;6.10;;;2.38;;
23282;SDS011;11810;51.178;3.878;2022-07-29T06:52:40;7.18;;;2.20;;
23282;SDS011;11810;51.178;3.878;2022-07-29T06:55:06;6.72;;;2.45;;
23282;SDS011;11810;51.178;3.878;2022-07-29T06:57:33;9.15;;;2.55;;
23282;SDS011;11810;51.178;3.878;2022-07-29T06:59:59;5.20;;;2.42;;
23282;SDS011;11810;51.178;3.878;2022-07-29T07:02:25;3.92;;;2.15;;
23282;SDS011;11810;51.178;3.878;2022-07-29T07:04:51;3.63;;;2.50;;
23282;SDS011;11810;51.178;3.878;2022-07-29T07:07:18;8.02;;;2.55;;
23282;SDS011;11810;51.178;3.878;2022-07-29T07:09:44;6.95;;;2.33;;
23282;SDS011;11810;51.178;3.878;2022-07-29T07:12:10;5.43;;;2.45;;
23282;SDS011;11810;51.178;3.878;2022-07-29T07:14:35;10.07;;;2.58;;
23282;SDS011;11810;51.178;3.878;2022-07-29T07:17:01;9.38;;;2.40;;
23282;SDS011;11810;51.178;3.878;2022-07-29T07:19:29;6.30;;;2.20;;
23282;SDS011;11810;51.178;3.878;2022-07-29T07:21:55;4.03;;;1.90;;
23282;SDS011;11810;51.178;3.878;2022-07-29T07:24:21;4.22;;;2.08;;
23282;SDS011;11810;51.178;3.878;2022-07-29T07:26:47;5.53;;;2.08;;
23282;SDS011;11810;51.178;3.878;2022-07-29T07:29:12;6.45;;;2.30;;
23282;SDS011;11810;51.178;3.878;2022-07-29T07:31:38;5.32;;;2.08;;
23282;SDS011;11810;51.178;3.878;2022-07-29T07:34:04;5.72;;;2.20;;
23282;SDS011;11810;51.178;3.878;2022-07-29T07:36:30;18.95;;;5.25;;
23282;SDS011;11810;51.178;3.878;2022-07-29T07:38:56;11.40;;;2.90;;
23282;SDS011;11810;51.178;3.878;2022-07-29T07:41:22;6.75;;;1.80;;
23282;SDS011;11810;51.178;3.878;2022-07-29T07:43:48;4.93;;;2.10;;
23282;SDS011;11810;51.178;3.878;2022-07-29T07:46:14;5.07;;;1.90;;
23282;SDS011;11810;51.178;3.878;2022-07-29T07:48:40;3.35;;;1.67;;
23282;SDS011;11810;51.178;3.878;2022-07-29T07:51:06;5.53;;;1.95;;
23282;SDS011;11810;51.178;3.878;2022-07-29T07:53:32;5.05;;;2.08;;
23282;SDS011;11810;51.178;3.878;2022-07-29T07:55:58;6.57;;;2.42;;
23282;SDS011;11810;51.178;3.878;2022-07-29T07:58:25;7.32;;;2.28;;
23282;SDS011;11810;51.178;3.878;2022-07-29T08:00:51;6.43;;;2.50;;
23282;SDS011;11810;51.178;3.878;2022-07-29T08:03:17;4.90;;;2.10;;
23282;SDS011;11810;51.178;3.878;2022-07-29T08:05:43;5.13;;;2.05;;
23282;SDS011;11810;51.178;3.878;2022-07-29T08:08:09;4.97;;;2.28;;
23282;SDS011;11810;51.178;3.878;2022-07-29T08:10:35;5.93;;;2.13;;
23282;SDS011;11810;51.178;3.878;2022-07-29T08:13:21;6.57;;;2.10;;
23282;SDS011;11810;51.178;3.878;2022-07-29T08:15:49;3.58;;;1.90;;
23282;SDS011;11810;51.178;3.878;2022-07-29T08:18:36;6.55;;;2.20;;
23282;SDS011;11810;51.178;3.878;2022-07-29T08:21:03;9.23;;;2.58;;
23282;SDS011;11810;51.178;3.878;2022-07-29T08:23:29;5.63;;;2.78;;
23282;SDS011;11810;51.178;3.878;2022-07-29T08:26:13;5.15;;;2.78;;
23282;SDS011;11810;51.178;3.878;2022-07-29T08:28:39;5.75;;;2.92;;
23282;SDS011;11810;51.178;3.878;2022-07-29T08:31:09;6.82;;;2.63;;
23282;SDS011;11810;51.178;3.878;2022-07-29T08:33:35;10.55;;;3.67;;
23282;SDS011;11810;51.178;3.878;2022-07-29T08:36:01;8.45;;;5.15;;
23282;SDS011;11810;51.178;3.878;2022-07-29T08:38:27;11.73;;;4.30;;
23282;SDS011;11810;51.178;3.878;2022-07-29T08:40:53;3.05;;;2.45;;
23282;SDS011;11810;51.178;3.878;2022-07-29T08:43:19;15.52;;;2.28;;
23282;SDS011;11810;51.178;3.878;2022-07-29T08:45:46;12.70;;;3.47;;
23282;SDS011;11810;51.178;3.878;2022-07-29T08:48:14;9.43;;;3.63;;
23282;SDS011;11810;51.178;3.878;2022-07-29T08:50:41;10.73;;;2.97;;
23282;SDS011;11810;51.178;3.878;2022-07-29T08:53:12;12.52;;;4.03;;
23282;SDS011;11810;51.178;3.878;2022-07-29T08:55:43;24.67;;;4.63;;
23282;SDS011;11810;51.178;3.878;2022-07-29T08:58:10;11.30;;;3.95;;
23282;SDS011;11810;51.178;3.878;2022-07-29T09:00:40;8.60;;;3.15;;
23282;SDS011;11810;51.178;3.878;2022-07-29T09:03:08;6.63;;;2.60;;
23282;SDS011;11810;51.178;3.878;2022-07-29T09:05:37;10.00;;;3.40;;
23282;SDS011;11810;51.178;3.878;2022-07-29T09:08:06;6.53;;;3.65;;
23282;SDS011;11810;51.178;3.878;2022-07-29T09:10:34;10.32;;;4.38;;
23282;SDS011;11810;51.178;3.878;2022-07-29T09:13:01;16.10;;;4.78;;
23282;SDS011;11810;51.178;3.878;2022-07-29T09:15:28;6.65;;;4.90;;
23282;SDS011;11810;51.178;3.878;2022-07-29T09:17:54;9.85;;;3.88;;
23282;SDS011;11810;51.178;3.878;2022-07-29T09:20:22;7.40;;;2.70;;
23282;SDS011;11810;51.178;3.878;2022-07-29T09:22:49;7.32;;;2.50;;
23282;SDS011;11810;51.178;3.878;2022-07-29T09:25:31;10.95;;;2.47;;
23282;SDS011;11810;51.178;3.878;2022-07-29T09:30:34;10.20;;;2.63;;
23282;SDS011;11810;51.178;3.878;2022-07-29T09:33:01;9.35;;;2.63;;
23282;SDS011;11810;51.178;3.878;2022-07-29T09:35:28;9.35;;;2.40;;
23282;SDS011;11810;51.178;3.878;2022-07-29T09:37:55;5.38;;;2.38;;
23282;SDS011;11810;51.178;3.878;2022-07-29T09:40:25;7.00;;;1.88;;
23282;SDS011;11810;51.178;3.878;2022-07-29T09:42:53;7.13;;;2.20;;
23282;SDS011;11810;51.178;3.878;2022-07-29T09:45:29;3.55;;;1.50;;
23282;SDS011;11810;51.178;3.878;2022-07-29T09:50:35;4.28;;;1.52;;
23282;SDS011;11810;51.178;3.878;2022-07-29T09:53:02;4.60;;;1.70;;
23282;SDS011;11810;51.178;3.878;2022-07-29T09:55:28;5.90;;;1.50;;
23282;SDS011;11810;51.178;3.878;2022-07-29T09:57:54;5.43;;;1.80;;
23282;SDS011;11810;51.178;3.878;2022-07-29T10:00:44;4.65;;;1.60;;
23282;SDS011;11810;51.178;3.878;2022-07-29T10:03:11;7.13;;;1.38;;
23282;SDS011;11810;51.178;3.878;2022-07-29T10:05:38;5.97;;;1.70;;
23282;SDS011;11810;51.178;3.878;2022-07-29T10:08:05;5.80;;;1.67;;
23282;SDS011;11810;51.178;3.878;2022-07-29T10:10:39;2.92;;;1.60;;
23282;SDS011;11810;51.178;3.878;2022-07-29T10:13:09;5.10;;;1.33;;
23282;SDS011;11810;51.178;3.878;2022-07-29T10:15:37;3.92;;;1.40;;
23282;SDS011;11810;51.178;3.878;2022-07-29T10:18:09;4.90;;;1.30;;
23282;SDS011;11810;51.178;3.878;2022-07-29T10:20:37;5.35;;;1.55;;
23282;SDS011;11810;51.178;3.878;2022-07-29T10:23:04;4.15;;;1.30;;
23282;SDS011;11810;51.178;3.878;2022-07-29T10:25:30;4.35;;;1.23;;
23282;SDS011;11810;51.178;3.878;2022-07-29T10:27:57;2.38;;;1.00;;
23282;SDS011;11810;51.178;3.878;2022-07-29T10:30:24;8.35;;;1.15;;
23282;SDS011;11810;51.178;3.878;2022-07-29T10:33:00;5.30;;;1.08;;
23282;SDS011;11810;51.178;3.878;2022-07-29T10:35:51;4.90;;;1.38;;
23282;SDS011;11810;51.178;3.878;2022-07-29T10:44:34;4.75;;;1.33;;
23282;SDS011;11810;51.178;3.878;2022-07-29T10:46:42;3.30;;;1.40;;
23282;SDS011;11810;51.178;3.878;2022-07-29T10:54:17;3.78;;;1.30;;
23282;SDS011;11810;51.178;3.878;2022-07-29T10:56:44;6.20;;;1.20;;
23282;SDS011;11810;51.178;3.878;2022-07-29T11:01:47;4.80;;;1.38;;
23282;SDS011;11810;51.178;3.878;2022-07-29T11:04:14;6.72;;;1.45;;
23282;SDS011;11810;51.178;3.878;2022-07-29T11:09:25;4.13;;;1.65;;
23282;SDS011;11810;51.178;3.878;2022-07-29T11:11:52;5.65;;;1.70;;
23282;SDS011;11810;51.178;3.878;2022-07-29T11:14:18;7.85;;;1.50;;
23282;SDS011;11810;51.178;3.878;2022-07-29T11:17:04;7.97;;;1.77;;
23282;SDS011;11810;51.178;3.878;2022-07-29T11:19:32;3.90;;;1.30;;
23282;SDS011;11810;51.178;3.878;2022-07-29T11:21:58;3.55;;;1.95;;
23282;SDS011;11810;51.178;3.878;2022-07-29T11:24:25;4.70;;;1.67;;
23282;SDS011;11810;51.178;3.878;2022-07-29T11:27:06;3.35;;;2.05;;
23282;SDS011;11810;51.178;3.878;2022-07-29T11:29:50;5.55;;;1.55;;
23282;SDS011;11810;51.178;3.878;2022-07-29T11:34:45;9.15;;;1.60;;
23282;SDS011;11810;51.178;3.878;2022-07-29T11:37:14;6.38;;;1.85;;
23282;SDS011;11810;51.178;3.878;2022-07-29T11:44:59;4.97;;;1.67;;
23282;SDS011;11810;51.178;3.878;2022-07-29T11:47:35;8.32;;;2.17;;
23282;SDS011;11810;51.178;3.878;2022-07-29T11:50:03;5.22;;;2.55;;
23282;SDS011;11810;51.178;3.878;2022-07-29T11:52:35;9.57;;;2.15;;
23282;SDS011;11810;51.178;3.878;2022-07-29T11:55:08;7.32;;;2.72;;
23282;SDS011;11810;51.178;3.878;2022-07-29T11:57:37;4.93;;;2.20;;
23282;SDS011;11810;51.178;3.878;2022-07-29T12:00:11;6.28;;;2.70;;
23282;SDS011;11810;51.178;3.878;2022-07-29T12:02:45;6.80;;;2.20;;
23282;SDS011;11810;51.178;3.878;2022-07-29T12:05:11;7.82;;;2.30;;
23282;SDS011;11810;51.178;3.878;2022-07-29T12:07:37;6.55;;;2.38;;
23282;SDS011;11810;51.178;3.878;2022-07-29T12:10:05;8.10;;;2.63;;
23282;SDS011;11810;51.178;3.878;2022-07-29T12:12:32;3.75;;;2.33;;
23282;SDS011;11810;51.178;3.878;2022-07-29T12:15:10;10.55;;;2.55;;
23282;SDS011;11810;51.178;3.878;2022-07-29T12:17:40;6.93;;;2.60;;
23282;SDS011;11810;51.178;3.878;2022-07-29T12:20:06;7.30;;;2.83;;
23282;SDS011;11810;51.178;3.878;2022-07-29T12:22:36;8.30;;;2.22;;
23282;SDS011;11810;51.178;3.878;2022-07-29T12:25:06;8.00;;;2.92;;
23282;SDS011;11810;51.178;3.878;2022-07-29T12:27:34;8.10;;;2.75;;
23282;SDS011;11810;51.178;3.878;2022-07-29T12:30:03;7.43;;;2.88;;
23282;SDS011;11810;51.178;3.878;2022-07-29T12:32:34;6.35;;;2.20;;
23282;SDS011;11810;51.178;3.878;2022-07-29T12:35:05;8.30;;;2.75;;
23282;SDS011;11810;51.178;3.878;2022-07-29T12:37:35;7.18;;;2.67;;
23282;SDS011;11810;51.178;3.878;2022-07-29T12:40:03;6.80;;;2.65;;
23282;SDS011;11810;51.178;3.878;2022-07-29T12:42:30;7.05;;;2.60;;
23282;SDS011;11810;51.178;3.878;2022-07-29T12:44:57;4.85;;;1.80;;
23282;SDS011;11810;51.178;3.878;2022-07-29T12:47:23;5.00;;;2.00;;
23282;SDS011;11810;51.178;3.878;2022-07-29T12:49:49;6.72;;;2.15;;
23282;SDS011;11810;51.178;3.878;2022-07-29T12:52:29;4.68;;;2.15;;
23282;SDS011;11810;51.178;3.878;2022-07-29T12:54:56;7.50;;;2.22;;
23282;SDS011;11810;51.178;3.878;2022-07-29T12:57:22;12.02;;;2.22;;
23282;SDS011;11810;51.178;3.878;2022-07-29T12:59:59;8.73;;;1.85;;
23282;SDS011;11810;51.178;3.878;2022-07-29T13:02:24;8.60;;;2.83;;
23282;SDS011;11810;51.178;3.878;2022-07-29T13:04:57;5.05;;;2.90;;
23282;SDS011;11810;51.178;3.878;2022-07-29T13:07:28;8.27;;;2.40;;
23282;SDS011;11810;51.178;3.878;2022-07-29T13:15:34;7.20;;;2.05;;
23282;SDS011;11810;51.178;3.878;2022-07-29T13:18:04;5.25;;;1.80;;
23282;SDS011;11810;51.178;3.878;2022-07-29T13:20:50;5.95;;;2.03;;
23282;SDS011;11810;51.178;3.878;2022-07-29T13:23:16;7.10;;;1.77;;
23282;SDS011;11810;51.178;3.878;2022-07-29T13:25:43;7.78;;;1.55;;
23282;SDS011;11810;51.178;3.878;2022-07-29T13:28:08;7.68;;;2.38;;
23282;SDS011;11810;51.178;3.878;2022-07-29T13:30:36;10.43;;;3.10;;
23282;SDS011;11810;51.178;3.878;2022-07-29T13:33:02;11.82;;;2.63;;
23282;SDS011;11810;51.178;3.878;2022-07-29T13:35:28;8.10;;;2.83;;
23282;SDS011;11810;51.178;3.878;2022-07-29T13:37:55;8.20;;;2.67;;
23282;SDS011;11810;51.178;3.878;2022-07-29T13:40:21;7.15;;;2.58;;
23282;SDS011;11810;51.178;3.878;2022-07-29T13:42:47;6.40;;;2.60;;
23282;SDS011;11810;51.178;3.878;2022-07-29T13:45:13;10.13;;;2.63;;
23282;SDS011;11810;51.178;3.878;2022-07-29T13:47:40;6.78;;;2.80;;
23282;SDS011;11810;51.178;3.878;2022-07-29T13:50:06;4.95;;;2.55;;
23282;SDS011;11810;51.178;3.878;2022-07-29T13:52:35;6.18;;;2.50;;
23282;SDS011;11810;51.178;3.878;2022-07-29T13:55:02;7.30;;;1.85;;
23282;SDS011;11810;51.178;3.878;2022-07-29T13:57:29;7.70;;;2.55;;
23282;SDS011;11810;51.178;3.878;2022-07-29T13:59:55;4.13;;;1.88;;
23282;SDS011;11810;51.178;3.878;2022-07-29T14:02:22;5.07;;;1.88;;
23282;SDS011;11810;51.178;3.878;2022-07-29T14:04:48;5.85;;;2.40;;
23282;SDS011;11810;51.178;3.878;2022-07-29T14:07:14;6.13;;;1.73;;
23282;SDS011;11810;51.178;3.878;2022-07-29T14:09:39;10.48;;;2.08;;
23282;SDS011;11810;51.178;3.878;2022-07-29T14:12:05;5.65;;;1.85;;
23282;SDS011;11810;51.178;3.878;2022-07-29T14:14:32;3.50;;;1.83;;
23282;SDS011;11810;51.178;3.878;2022-07-29T14:16:58;8.38;;;1.88;;
23282;SDS011;11810;51.178;3.878;2022-07-29T14:19:24;5.88;;;1.65;;
23282;SDS011;11810;51.178;3.878;2022-07-29T14:21:50;6.20;;;2.40;;
23282;SDS011;11810;51.178;3.878;2022-07-29T14:24:16;8.88;;;2.08;;
23282;SDS011;11810;51.178;3.878;2022-07-29T14:26:42;6.43;;;1.80;;
23282;SDS011;11810;51.178;3.878;2022-07-29T14:29:07;5.72;;;1.60;;
23282;SDS011;11810;51.178;3.878;2022-07-29T14:31:33;5.72;;;1.63;;
23282;SDS011;11810;51.178;3.878;2022-07-29T14:33:59;5.80;;;1.65;;
23282;SDS011;11810;51.178;3.878;2022-07-29T14:36:25;6.82;;;1.77;;
23282;SDS011;11810;51.178;3.878;2022-07-29T14:38:52;5.30;;;2.00;;
23282;SDS011;11810;51.178;3.878;2022-07-29T14:41:18;8.07;;;1.55;;
23282;SDS011;11810;51.178;3.878;2022-07-29T14:43:44;7.57;;;2.65;;
23282;SDS011;11810;51.178;3.878;2022-07-29T14:46:10;7.72;;;2.90;;
23282;SDS011;11810;51.178;3.878;2022-07-29T14:48:36;6.63;;;2.42;;
23282;SDS011;11810;51.178;3.878;2022-07-29T14:51:02;8.43;;;2.03;;
23282;SDS011;11810;51.178;3.878;2022-07-29T14:53:28;5.60;;;1.67;;
23282;SDS011;11810;51.178;3.878;2022-07-29T14:55:53;4.88;;;2.00;;
23282;SDS011;11810;51.178;3.878;2022-07-29T14:58:19;5.05;;;1.85;;
23282;SDS011;11810;51.178;3.878;2022-07-29T15:00:47;6.07;;;1.70;;
23282;SDS011;11810;51.178;3.878;2022-07-29T15:03:13;6.90;;;2.08;;
23282;SDS011;11810;51.178;3.878;2022-07-29T15:05:39;4.80;;;2.20;;
23282;SDS011;11810;51.178;3.878;2022-07-29T15:08:05;7.50;;;2.75;;
23282;SDS011;11810;51.178;3.878;2022-07-29T15:10:33;5.00;;;2.10;;
23282;SDS011;11810;51.178;3.878;2022-07-29T15:12:59;4.05;;;1.40;;
23282;SDS011;11810;51.178;3.878;2022-07-29T15:15:25;3.90;;;1.50;;
23282;SDS011;11810;51.178;3.878;2022-07-29T15:17:51;6.55;;;1.55;;
23282;SDS011;11810;51.178;3.878;2022-07-29T15:20:17;4.57;;;1.42;;
23282;SDS011;11810;51.178;3.878;2022-07-29T15:22:43;3.55;;;1.42;;
23282;SDS011;11810;51.178;3.878;2022-07-29T15:25:09;5.25;;;1.60;;
23282;SDS011;11810;51.178;3.878;2022-07-29T15:27:35;9.60;;;2.00;;
23282;SDS011;11810;51.178;3.878;2022-07-29T15:30:02;6.43;;;1.65;;
23282;SDS011;11810;51.178;3.878;2022-07-29T15:32:28;6.35;;;1.80;;
23282;SDS011;11810;51.178;3.878;2022-07-29T15:34:54;5.15;;;1.40;;
23282;SDS011;11810;51.178;3.878;2022-07-29T15:37:20;7.13;;;2.13;;
23282;SDS011;11810;51.178;3.878;2022-07-29T15:39:46;9.52;;;2.15;;
23282;SDS011;11810;51.178;3.878;2022-07-29T15:42:11;5.95;;;1.75;;